Roanoke, VA (24031)

7:00 PM EDT on April 25, 2015 (GMT -0400)
Hurt Park ES | | Change Station
CLOSE
Current Station
Personal Weather Station
Location: Roanoke, VA
Elevation: 1010 ft
Nearby Weather Stations

Elev 1010 ft 37.28 °N, 79.97 °W | Updated 4 seconds ago

Overcast
Overcast
41.6 °F
Feels Like 39 °F
N
4.0
Wind Variable Wind from East
Gusts 4.0 mph

Today
High -- | Low -- °F
--% Chance of Precip.
Yesterday
High -- | Low -- °F
Precip. -- in
6:32 AM 8:03 PM
Waxing Crescent, 50% visible
Pressure 29.73 in
Visibility 6.0 miles
Clouds Few 500 ft
Overcast 900 ft
Windchill 39 °F
Dew Point 40 °F
Humidity 94%
Rainfall 0.20 in
Snow Depth Not available.
UV 0 out of 12
Pollen 6.20 out of 12
Air Quality Not available.
Flu Activity Sporadic
METAR KROA 252254Z 15008KT 6SM BR FEW005 OVC009 05/04 A2973 RMK AO2 SLP067 T00500044

More Conditions Fewer Conditions

Pressure 29.73 in
Visibility 6.0 miles
Clouds Few 500 ft
Overcast 900 ft
Windchill 39 °F
Dew Point 40 °F
Humidity 94%
Rainfall 0.20 in
Snow Depth Not available.
UV 0 out of 12
Pollen 6.20 out of 12
Air Quality Not available.
Flu Activity Sporadic
METAR KROA 252254Z 15008KT 6SM BR FEW005 OVC009 05/04 A2973 RMK AO2 SLP067 T00500044

More Conditions Fewer Conditions

10-Day Weather Forecast

Almanac

Astronomy

Apr. 25, 2015 Rise Set
Actual Time
Civil Twilight
Nautical Twilight
Astronomical Twilight
Moon
Length of Visible Light
Length of Day
Tomorrow will be .
, % of the Moon is Illuminated

Today's Extremes

State Highs State Lows

Community

WunderPhotos

Upload Photos

1,816,842 photos uploaded!

WunderBlogs® & News

Nearby

Air Quality

  Air Quality AQ Index Pollutant
Not available.

Snow Depth

Station Depth Elevation

Earthquake Activity

City Distance Mag. Time & Date
Minimum magnitude displayed is 2.5.

Coastal Water Temperatures

Place Temperature

Stations

Nearby Weather Stations

Station Location Temp. Windchill Dew Point Humidity Wind Precip. Elev Updated Type